createdAt,value
2022-09-04T00:00:56.224Z,0.00
2022-09-04T00:01:56.181Z,0.00
2022-09-04T00:02:56.151Z,0.00
2022-09-04T00:03:56.328Z,0.00
2022-09-04T00:04:56.403Z,0.00
2022-09-04T00:05:56.107Z,0.00
2022-09-04T00:06:56.156Z,0.00
2022-09-04T00:07:56.122Z,0.00
2022-09-04T00:08:56.076Z,0.00
2022-09-04T00:09:56.071Z,0.00
2022-09-04T00:10:56.088Z,0.00
2022-09-04T00:11:56.067Z,0.00
2022-09-04T00:12:56.037Z,0.00
2022-09-04T00:13:56.022Z,0.00
2022-09-04T00:14:56.020Z,0.00
2022-09-04T00:15:56.021Z,0.00
2022-09-04T00:16:56.149Z,0.00
2022-09-04T00:17:55.993Z,0.00
2022-09-04T00:18:55.978Z,0.00
2022-09-04T00:19:55.943Z,0.00
2022-09-04T00:20:56.020Z,0.00
2022-09-04T00:21:55.972Z,0.00
2022-09-04T00:22:56.092Z,0.00
2022-09-04T00:23:55.924Z,0.00
2022-09-04T00:24:55.934Z,0.00
2022-09-04T00:25:55.880Z,0.00
2022-09-04T00:26:55.878Z,0.00
2022-09-04T00:27:56.605Z,0.00
2022-09-04T00:28:55.902Z,0.00
2022-09-04T00:29:55.838Z,0.00
2022-09-04T00:30:56.914Z,0.00
2022-09-04T00:31:55.828Z,0.00
2022-09-04T00:32:55.810Z,0.00
2022-09-04T00:33:56.818Z,0.00
2022-09-04T00:34:55.850Z,0.00
2022-09-04T00:35:55.826Z,0.00
2022-09-04T00:36:55.787Z,0.00
2022-09-04T00:37:55.771Z,0.00
2022-09-04T00:38:55.745Z,0.00
2022-09-04T00:39:55.755Z,0.00
2022-09-04T00:40:55.810Z,0.00
2022-09-04T00:41:55.745Z,0.00
2022-09-04T00:42:55.708Z,0.00
2022-09-04T00:43:55.713Z,0.00
2022-09-04T00:44:55.703Z,0.00
2022-09-04T00:45:55.768Z,0.00
2022-09-04T00:46:55.734Z,0.00
2022-09-04T00:47:55.691Z,0.00
2022-09-04T00:48:55.650Z,0.00
2022-09-04T00:49:55.624Z,0.00
2022-09-04T00:50:55.858Z,0.00
2022-09-04T00:51:55.642Z,0.00
2022-09-04T00:52:58.233Z,0.00
2022-09-04T00:53:55.604Z,0.00
2022-09-04T00:54:55.607Z,0.00
2022-09-04T00:55:55.580Z,0.00
2022-09-04T00:56:55.822Z,0.00
2022-09-04T00:57:55.524Z,0.00
2022-09-04T00:58:55.596Z,0.00
2022-09-04T00:59:55.835Z,0.00
2022-09-04T01:00:56.017Z,0.00
2022-09-04T01:01:55.611Z,0.00
2022-09-04T01:02:55.494Z,0.00
2022-09-04T01:03:55.476Z,0.00
2022-09-04T01:04:55.492Z,0.00
2022-09-04T01:05:55.457Z,0.00
2022-09-04T01:06:55.427Z,0.00
2022-09-04T01:07:55.410Z,0.00
2022-09-04T01:08:56.194Z,0.00
2022-09-04T01:09:55.410Z,0.00
2022-09-04T01:10:55.452Z,0.00
2022-09-04T01:11:55.420Z,0.00
2022-09-04T01:12:55.384Z,0.00
2022-09-04T01:13:55.433Z,0.00
2022-09-04T01:14:55.379Z,0.00
2022-09-04T01:15:55.352Z,0.00
2022-09-04T01:16:55.525Z,0.00
2022-09-04T01:17:55.321Z,0.00
2022-09-04T01:18:55.307Z,0.00
2022-09-04T01:19:55.299Z,0.00
2022-09-04T01:20:55.284Z,0.00
2022-09-04T01:21:55.275Z,0.00
2022-09-04T01:22:55.602Z,0.00
2022-09-04T01:23:55.231Z,0.00
2022-09-04T01:24:55.252Z,0.00
2022-09-04T01:25:55.225Z,0.00
2022-09-04T01:26:55.199Z,0.00
2022-09-04T01:27:55.228Z,0.00
2022-09-04T01:28:55.212Z,0.00
2022-09-04T01:29:55.175Z,0.00
2022-09-04T01:30:55.158Z,0.00
2022-09-04T01:31:55.368Z,0.00
2022-09-04T01:32:55.136Z,0.00
2022-09-04T01:33:55.188Z,0.00
2022-09-04T01:34:55.141Z,0.00
2022-09-04T01:35:55.102Z,0.00
2022-09-04T01:36:55.102Z,0.00
2022-09-04T01:37:55.080Z,0.00
2022-09-04T01:38:55.062Z,0.00
2022-09-04T01:39:55.135Z,0.00
2022-09-04T01:40:55.086Z,0.00
2022-09-04T01:41:55.038Z,0.00
2022-09-04T01:42:55.020Z,0.00
2022-09-04T01:43:55.037Z,0.00
2022-09-04T01:44:55.260Z,0.00
2022-09-04T01:45:55.054Z,0.00
2022-09-04T01:46:55.051Z,0.00
2022-09-04T01:47:54.985Z,0.00
2022-09-04T01:48:54.958Z,0.00
2022-09-04T01:49:54.970Z,0.00
2022-09-04T01:50:55.612Z,0.00
2022-09-04T01:51:54.928Z,0.00
2022-09-04T01:52:54.984Z,0.00
2022-09-04T01:53:54.902Z,0.00
2022-09-04T01:54:54.883Z,0.00
2022-09-04T01:55:54.875Z,0.00
2022-09-04T01:56:54.879Z,0.00
2022-09-04T01:57:54.883Z,0.00
2022-09-04T01:58:55.012Z,0.00
2022-09-04T01:59:54.846Z,0.00
2022-09-04T02:00:56.129Z,0.00
2022-09-04T02:01:54.893Z,0.00
2022-09-04T02:02:54.802Z,0.00
2022-09-04T02:03:54.837Z,0.00
2022-09-04T02:04:54.838Z,0.00
2022-09-04T02:05:54.782Z,0.00
2022-09-04T02:06:54.772Z,0.00
2022-09-04T02:07:54.756Z,0.00
2022-09-04T02:08:54.764Z,0.00
2022-09-04T02:09:54.748Z,0.00
2022-09-04T02:10:54.755Z,0.00
2022-09-04T02:11:57.167Z,0.00
2022-09-04T02:12:54.746Z,0.00
2022-09-04T02:13:54.673Z,0.00
2022-09-04T02:14:54.688Z,0.00
2022-09-04T02:15:54.742Z,0.00
2022-09-04T02:16:54.778Z,0.00
2022-09-04T02:17:54.633Z,0.00
2022-09-04T02:18:54.637Z,0.00
2022-09-04T02:19:54.616Z,0.00
2022-09-04T02:20:54.591Z,0.00
2022-09-04T02:21:54.636Z,0.00
2022-09-04T02:22:54.649Z,0.00
2022-09-04T02:23:54.598Z,0.00
2022-09-04T02:24:54.567Z,0.00
2022-09-04T02:25:54.541Z,0.00
2022-09-04T02:26:54.526Z,0.00
2022-09-04T02:27:54.785Z,0.00
2022-09-04T02:28:54.608Z,0.00
2022-09-04T02:29:55.520Z,0.00
2022-09-04T02:30:54.733Z,0.00
2022-09-04T02:31:54.643Z,0.00
2022-09-04T02:32:54.501Z,0.00
2022-09-04T02:33:54.454Z,0.00
2022-09-04T02:34:54.507Z,0.00
2022-09-04T02:35:54.455Z,0.00
2022-09-04T02:36:54.445Z,0.00
2022-09-04T02:37:54.434Z,0.00
2022-09-04T02:38:54.393Z,0.00
2022-09-04T02:39:54.480Z,0.00
2022-09-04T02:40:54.437Z,0.00
2022-09-04T02:41:54.371Z,0.00
2022-09-04T02:42:54.353Z,0.00
2022-09-04T02:43:54.339Z,0.00
2022-09-04T02:44:54.570Z,0.00
2022-09-04T02:45:54.344Z,0.00
2022-09-04T02:46:54.448Z,0.00
2022-09-04T02:47:54.305Z,0.00
2022-09-04T02:48:54.296Z,0.00
2022-09-04T02:49:54.277Z,0.00
2022-09-04T02:50:54.262Z,0.00
2022-09-04T02:51:54.329Z,0.00
2022-09-04T02:52:54.320Z,0.00
2022-09-04T02:53:54.246Z,0.00
2022-09-04T02:54:54.216Z,0.00
2022-09-04T02:55:54.228Z,0.00
2022-09-04T02:56:54.202Z,0.00
2022-09-04T02:57:54.198Z,0.00
2022-09-04T02:58:54.206Z,0.00
2022-09-04T02:59:54.193Z,0.00
2022-09-04T03:00:54.199Z,0.00
2022-09-04T03:01:54.196Z,0.00
2022-09-04T03:02:54.127Z,0.00
2022-09-04T03:03:54.152Z,0.00
2022-09-04T03:04:54.660Z,0.00
2022-09-04T03:05:54.097Z,0.00
2022-09-04T03:06:54.096Z,0.00
2022-09-04T03:07:54.151Z,0.00
2022-09-04T03:08:54.087Z,0.00
2022-09-04T03:09:54.334Z,0.00
2022-09-04T03:10:54.131Z,0.00
2022-09-04T03:11:54.327Z,0.00
2022-09-04T03:12:54.114Z,0.00
2022-09-04T03:13:53.994Z,0.00
2022-09-04T03:14:54.141Z,0.00
2022-09-04T03:15:54.069Z,0.00
2022-09-04T03:16:54.056Z,0.00
2022-09-04T03:17:54.071Z,0.00
2022-09-04T03:18:53.949Z,0.00
2022-09-04T03:19:53.935Z,0.00
2022-09-04T03:20:53.935Z,0.00
2022-09-04T03:21:54.298Z,0.00
2022-09-04T03:22:54.049Z,0.00
2022-09-04T03:23:53.936Z,0.00
2022-09-04T03:24:53.895Z,0.00
2022-09-04T03:25:53.963Z,0.00
2022-09-04T03:26:53.881Z,0.00
2022-09-04T03:27:53.835Z,0.00
2022-09-04T03:28:54.281Z,0.00
2022-09-04T03:29:53.817Z,0.00
2022-09-04T03:30:53.798Z,0.00
2022-09-04T03:31:53.831Z,0.00
2022-09-04T03:32:53.784Z,0.00
2022-09-04T03:33:53.777Z,0.00
2022-09-04T03:34:53.802Z,0.00
2022-09-04T03:35:53.739Z,0.00
2022-09-04T03:36:53.727Z,0.00
2022-09-04T03:37:53.716Z,0.00
2022-09-04T03:38:53.715Z,0.00
2022-09-04T03:39:53.808Z,0.00
2022-09-04T03:40:53.760Z,0.00
2022-09-04T03:41:53.670Z,0.00
2022-09-04T03:42:53.683Z,0.00
2022-09-04T03:43:53.655Z,0.00
2022-09-04T03:44:53.643Z,0.00
2022-09-04T03:45:53.630Z,0.00
2022-09-04T03:46:53.730Z,0.00
2022-09-04T03:47:53.623Z,0.00
2022-09-04T03:48:53.607Z,0.00
2022-09-04T03:49:53.593Z,0.00
2022-09-04T03:50:53.576Z,0.00
2022-09-04T03:51:53.571Z,0.00
2022-09-04T03:52:53.616Z,0.00
2022-09-04T03:53:53.565Z,0.00
2022-09-04T03:54:53.659Z,0.00
2022-09-04T03:55:53.655Z,0.00
2022-09-04T03:56:53.542Z,0.00
2022-09-04T03:57:53.534Z,0.00
2022-09-04T03:58:53.522Z,0.00
2022-09-04T03:59:53.477Z,0.00
2022-09-04T04:00:53.578Z,0.00
2022-09-04T04:01:53.704Z,0.00
2022-09-04T04:02:53.453Z,0.00
2022-09-04T04:03:53.424Z,0.00
2022-09-04T04:04:53.472Z,0.00
2022-09-04T04:05:53.403Z,0.00
2022-09-04T04:06:53.464Z,0.00
2022-09-04T04:07:53.498Z,0.00
2022-09-04T04:08:53.363Z,0.00
2022-09-04T04:09:53.376Z,0.00
2022-09-04T04:10:53.390Z,0.00
2022-09-04T04:11:53.339Z,0.00
2022-09-04T04:12:53.320Z,0.00
2022-09-04T04:13:53.357Z,0.00
2022-09-04T04:14:53.304Z,0.00
2022-09-04T04:15:53.354Z,0.00
2022-09-04T04:16:56.066Z,0.00
2022-09-04T04:17:53.522Z,0.00
2022-09-04T04:18:53.276Z,0.00
2022-09-04T04:19:53.259Z,0.00
2022-09-04T04:20:53.234Z,0.00
2022-09-04T04:21:53.221Z,0.00
2022-09-04T04:22:53.252Z,0.00
2022-09-04T04:23:53.210Z,0.00
2022-09-04T04:24:53.186Z,0.00
2022-09-04T04:25:53.247Z,0.00
2022-09-04T04:26:54.897Z,0.00
2022-09-04T04:27:53.159Z,0.00
2022-09-04T04:28:53.201Z,0.00
2022-09-04T04:29:53.135Z,0.00
2022-09-04T04:30:53.169Z,0.00
2022-09-04T04:31:53.113Z,0.00
2022-09-04T04:32:53.090Z,0.00
2022-09-04T04:33:53.111Z,0.00
2022-09-04T04:34:53.218Z,5.62
2022-09-04T04:35:53.080Z,5.62
2022-09-04T04:36:53.061Z,5.62
2022-09-04T04:37:53.082Z,5.62
2022-09-04T04:38:53.031Z,5.62
2022-09-04T04:39:53.063Z,5.62
2022-09-04T04:40:53.065Z,11.25
2022-09-04T04:41:53.008Z,11.25
2022-09-04T04:42:52.977Z,11.25
2022-09-04T04:43:53.060Z,11.25
2022-09-04T04:44:53.020Z,11.25
2022-09-04T04:45:53.118Z,16.88
2022-09-04T04:46:53.120Z,16.88
2022-09-04T04:47:52.996Z,16.88
2022-09-04T04:48:53.143Z,22.50
2022-09-04T04:49:53.273Z,22.50
2022-09-04T04:50:53.145Z,22.50
2022-09-04T04:51:52.902Z,22.50
2022-09-04T04:52:53.664Z,28.12
2022-09-04T04:53:53.413Z,28.12
2022-09-04T04:54:52.859Z,28.12
2022-09-04T04:55:52.840Z,33.75
2022-09-04T04:56:52.825Z,33.75
2022-09-04T04:57:52.816Z,33.75
2022-09-04T04:58:52.845Z,39.38
2022-09-04T04:59:52.800Z,39.38
2022-09-04T05:00:53.806Z,39.38
2022-09-04T05:01:52.845Z,45.00
2022-09-04T05:02:52.798Z,45.00
2022-09-04T05:03:52.749Z,45.00
2022-09-04T05:04:52.796Z,50.62
2022-09-04T05:05:52.730Z,50.62
2022-09-04T05:06:52.724Z,50.62
2022-09-04T05:07:52.717Z,56.25
2022-09-04T05:08:52.783Z,56.25
2022-09-04T05:09:52.681Z,56.25
2022-09-04T05:10:52.711Z,61.88
2022-09-04T05:11:52.666Z,61.88
2022-09-04T05:12:52.657Z,61.88
2022-09-04T05:13:52.898Z,67.50
2022-09-04T05:14:52.643Z,67.50
2022-09-04T05:16:08.410Z,73.12
2022-09-04T05:16:55.775Z,73.12
2022-09-04T05:17:52.579Z,73.12
2022-09-04T05:18:52.596Z,78.75
2022-09-04T05:19:52.608Z,78.75
2022-09-04T05:20:52.560Z,78.75
2022-09-04T05:21:52.543Z,84.38
2022-09-04T05:22:52.592Z,84.38
2022-09-04T05:23:52.515Z,84.38
2022-09-04T05:24:55.688Z,90.00
2022-09-04T05:25:52.501Z,90.00
2022-09-04T05:26:52.498Z,90.00
2022-09-04T05:27:52.470Z,95.62
2022-09-04T05:28:58.871Z,95.62
2022-09-04T05:29:58.566Z,95.62
2022-09-04T05:30:59.308Z,101.25
2022-09-04T05:31:52.432Z,101.25
2022-09-04T05:32:52.439Z,101.25
2022-09-04T05:33:52.418Z,101.25
2022-09-04T05:34:52.433Z,101.25
2022-09-04T05:35:52.985Z,106.88
2022-09-04T05:36:52.385Z,106.88
2022-09-04T05:37:52.368Z,106.88
2022-09-04T05:38:52.357Z,106.88
2022-09-04T05:39:52.393Z,112.50
2022-09-04T05:40:52.411Z,118.12
2022-09-04T05:41:52.324Z,118.12
2022-09-04T05:42:52.304Z,123.75
2022-09-04T05:43:52.297Z,123.75
2022-09-04T05:44:52.280Z,123.75
2022-09-04T05:45:52.265Z,129.38
2022-09-04T05:46:52.410Z,129.38
2022-09-04T05:47:52.249Z,129.38
2022-09-04T05:48:52.238Z,135.00
2022-09-04T05:49:52.222Z,135.00
2022-09-04T05:50:52.227Z,135.00
2022-09-04T05:51:52.201Z,140.62
2022-09-04T05:52:52.292Z,140.62
2022-09-04T05:53:52.189Z,140.62
2022-09-04T05:54:52.165Z,146.25
2022-09-04T05:55:52.151Z,146.25
2022-09-04T05:56:52.147Z,146.25
2022-09-04T05:57:52.134Z,146.25
2022-09-04T05:58:52.641Z,151.88
2022-09-04T05:59:52.111Z,151.88
2022-09-04T06:00:52.127Z,151.88
2022-09-04T06:01:52.474Z,157.50
2022-09-04T06:02:52.119Z,157.50
2022-09-04T06:03:52.099Z,157.50
2022-09-04T06:04:52.059Z,157.50
2022-09-04T06:05:52.068Z,163.12
2022-09-04T06:06:52.040Z,163.12
2022-09-04T06:07:52.016Z,163.12
2022-09-04T06:08:52.019Z,163.12
2022-09-04T06:09:52.091Z,163.12
2022-09-04T06:10:51.990Z,168.75
2022-09-04T06:11:51.979Z,168.75
2022-09-04T06:12:51.973Z,168.75
2022-09-04T06:13:51.950Z,168.75
2022-09-04T06:14:51.942Z,174.38
2022-09-04T06:15:52.018Z,174.38
2022-09-04T06:16:51.919Z,174.38
2022-09-04T06:17:51.908Z,174.38
2022-09-04T06:18:51.895Z,174.38
2022-09-04T06:19:51.892Z,174.38
2022-09-04T06:20:51.881Z,180.00
2022-09-04T06:21:51.907Z,180.00
2022-09-04T06:22:55.741Z,180.00
2022-09-04T06:23:51.847Z,185.62
2022-09-04T06:24:51.870Z,185.62
2022-09-04T06:25:51.879Z,185.62
2022-09-04T06:26:51.818Z,185.62
2022-09-04T06:27:51.843Z,185.62
2022-09-04T06:28:51.791Z,185.62
2022-09-04T06:29:51.773Z,185.62
2022-09-04T06:30:51.798Z,185.62
2022-09-04T06:31:51.763Z,191.25
2022-09-04T06:32:51.746Z,191.25
2022-09-04T06:33:51.784Z,191.25
2022-09-04T06:34:51.722Z,191.25
2022-09-04T06:35:51.713Z,191.25
2022-09-04T06:36:51.703Z,191.25
2022-09-04T06:37:51.684Z,191.25
2022-09-04T06:38:51.672Z,191.25
2022-09-04T06:39:51.904Z,191.25
2022-09-04T06:40:51.657Z,196.88
2022-09-04T06:41:51.637Z,196.88
2022-09-04T06:42:51.632Z,196.88
2022-09-04T06:43:54.359Z,196.88
2022-09-04T06:44:51.610Z,196.88
2022-09-04T06:45:51.663Z,196.88
2022-09-04T06:46:51.656Z,202.50
2022-09-04T06:47:51.584Z,202.50
2022-09-04T06:48:51.562Z,202.50
2022-09-04T06:49:51.562Z,202.50
2022-09-04T06:50:51.539Z,202.50
2022-09-04T06:51:51.571Z,202.50
2022-09-04T06:52:51.522Z,202.50
2022-09-04T06:53:51.509Z,208.12
2022-09-04T06:54:51.497Z,208.12
2022-09-04T06:55:51.481Z,202.50
2022-09-04T06:56:51.851Z,202.50
2022-09-04T06:57:51.490Z,202.50
2022-09-04T06:58:51.707Z,202.50
2022-09-04T06:59:51.437Z,202.50
2022-09-04T07:00:51.426Z,196.88
2022-09-04T07:01:51.549Z,196.88
2022-09-04T07:02:51.471Z,196.88
2022-09-04T07:03:51.429Z,202.50
2022-09-04T07:04:51.379Z,202.50
2022-09-04T07:05:51.586Z,202.50
2022-09-04T07:06:51.352Z,202.50
2022-09-04T07:07:51.352Z,208.12
2022-09-04T07:08:51.337Z,208.12
2022-09-04T07:09:51.355Z,208.12
2022-09-04T07:10:51.315Z,208.12
2022-09-04T07:11:51.301Z,213.75
2022-09-04T07:12:51.291Z,213.75
2022-09-04T07:13:51.286Z,213.75
2022-09-04T07:14:51.276Z,213.75
2022-09-04T07:15:51.350Z,219.38
2022-09-04T07:16:51.260Z,219.38
2022-09-04T07:17:51.818Z,219.38
2022-09-04T07:18:51.224Z,219.38
2022-09-04T07:19:51.210Z,219.38
2022-09-04T07:20:51.205Z,219.38
2022-09-04T07:21:51.231Z,219.38
2022-09-04T07:22:51.182Z,219.38
2022-09-04T07:23:51.179Z,219.38
2022-09-04T07:24:51.172Z,219.38
2022-09-04T07:25:51.147Z,219.38
2022-09-04T07:26:51.146Z,219.38
2022-09-04T07:27:51.218Z,219.38
2022-09-04T07:28:51.172Z,219.38
2022-09-04T07:29:51.092Z,219.38
2022-09-04T07:30:51.085Z,225.00
2022-09-04T07:31:51.116Z,225.00
2022-09-04T07:32:51.204Z,225.00
2022-09-04T07:33:51.208Z,225.00
2022-09-04T07:34:51.374Z,219.38
2022-09-04T07:35:51.060Z,219.38
2022-09-04T07:36:51.068Z,219.38
2022-09-04T07:39:51.001Z,219.38
2022-09-04T07:40:51.818Z,219.38
2022-09-04T07:41:51.799Z,219.38
2022-09-04T07:42:51.794Z,219.38
2022-09-04T07:43:54.864Z,219.38
2022-09-04T07:44:55.449Z,225.00
2022-09-04T07:45:51.813Z,225.00
2022-09-04T07:46:51.758Z,225.00
2022-09-04T07:47:51.745Z,225.00
2022-09-04T07:48:51.742Z,225.00
2022-09-04T07:49:51.720Z,225.00
2022-09-04T07:50:51.794Z,230.62
2022-09-04T07:51:51.774Z,230.62
2022-09-04T07:52:51.757Z,230.62
2022-09-04T07:53:51.667Z,230.62
2022-09-04T07:54:51.797Z,236.25
2022-09-04T07:55:51.675Z,236.25
2022-09-04T07:56:51.740Z,236.25
2022-09-04T07:57:51.827Z,236.25
2022-09-04T07:58:51.623Z,236.25
2022-09-04T07:59:51.827Z,236.25
2022-09-04T08:00:51.602Z,241.88
2022-09-04T08:01:51.784Z,241.88
2022-09-04T08:02:51.871Z,241.88
2022-09-04T08:03:54.515Z,241.88
2022-09-04T08:04:51.668Z,247.50
2022-09-04T08:05:51.583Z,247.50
2022-09-04T08:06:51.554Z,247.50
2022-09-04T08:07:51.664Z,253.12
2022-09-04T08:08:51.542Z,253.12
2022-09-04T08:09:51.492Z,253.12
2022-09-04T08:10:51.548Z,258.75
2022-09-04T08:11:51.624Z,258.75
2022-09-04T08:12:52.138Z,258.75
2022-09-04T08:13:51.550Z,264.38
2022-09-04T08:14:51.512Z,264.38
2022-09-04T08:15:51.544Z,270.00
2022-09-04T08:16:53.402Z,270.00
2022-09-04T08:17:51.440Z,275.62
2022-09-04T08:18:51.402Z,275.62
2022-09-04T08:19:51.432Z,281.25
2022-09-04T08:20:51.462Z,281.25
2022-09-04T08:21:51.437Z,281.25
2022-09-04T08:22:51.420Z,281.25
2022-09-04T08:23:51.349Z,281.25
2022-09-04T08:24:51.344Z,281.25
2022-09-04T08:25:51.316Z,286.88
2022-09-04T08:26:51.366Z,286.88
2022-09-04T08:27:51.311Z,292.50
2022-09-04T08:28:51.293Z,292.50
2022-09-04T08:29:58.609Z,298.12
2022-09-04T08:30:51.399Z,298.12
2022-09-04T08:31:51.251Z,303.75
2022-09-04T08:32:51.286Z,303.75
2022-09-04T08:33:51.242Z,309.38
2022-09-04T08:34:51.228Z,309.38
2022-09-04T08:35:51.194Z,309.38
2022-09-04T08:36:51.197Z,315.00
2022-09-04T08:37:51.178Z,315.00
2022-09-04T08:38:51.235Z,320.62
2022-09-04T08:39:51.313Z,320.62
2022-09-04T08:40:52.302Z,326.25
2022-09-04T08:41:51.149Z,326.25
2022-09-04T08:44:18.703Z,326.25
2022-09-04T08:45:19.620Z,326.25
2022-09-04T08:46:19.695Z,320.62
2022-09-04T08:47:19.600Z,315.00
2022-09-04T08:48:19.647Z,315.00
2022-09-04T08:49:19.636Z,315.00
2022-09-04T08:50:20.335Z,309.38
2022-09-04T08:51:19.557Z,303.75
2022-09-04T08:52:19.548Z,303.75
2022-09-04T08:53:19.556Z,303.75
2022-09-04T08:54:25.593Z,303.75
2022-09-04T08:55:19.519Z,303.75
2022-09-04T08:56:19.742Z,303.75
2022-09-04T08:57:19.498Z,303.75
2022-09-04T08:58:19.479Z,303.75
2022-09-04T08:59:19.465Z,309.38
2022-09-04T09:00:19.548Z,309.38
2022-09-04T09:01:19.493Z,315.00
2022-09-04T09:02:19.471Z,315.00
2022-09-04T09:03:19.429Z,320.62
2022-09-04T09:04:19.459Z,320.62
2022-09-04T09:05:19.427Z,320.62
2022-09-04T09:06:19.666Z,326.25
2022-09-04T09:07:19.502Z,326.25
2022-09-04T09:08:19.355Z,331.88
2022-09-04T09:09:19.356Z,337.50
2022-09-04T09:10:19.345Z,343.12
2022-09-04T09:11:20.369Z,354.38
2022-09-04T09:12:19.346Z,365.62
2022-09-04T09:13:19.307Z,382.50
2022-09-04T09:14:19.296Z,399.38
2022-09-04T09:15:19.277Z,416.25
2022-09-04T09:16:19.300Z,427.50
2022-09-04T09:17:21.497Z,450.00
2022-09-04T09:18:19.348Z,461.25
2022-09-04T09:19:19.243Z,478.12
2022-09-04T09:20:20.056Z,489.38
2022-09-04T09:21:19.214Z,495.00
2022-09-04T09:22:19.211Z,495.00
2022-09-04T09:23:19.260Z,489.38
2022-09-04T09:24:19.214Z,483.75
2022-09-04T09:25:19.169Z,478.12
2022-09-04T09:26:19.201Z,461.25
2022-09-04T09:27:19.142Z,455.62
2022-09-04T09:28:19.130Z,444.38
2022-09-04T09:29:19.127Z,444.38
2022-09-04T09:30:19.154Z,444.38
2022-09-04T09:31:19.153Z,438.75
2022-09-04T09:32:19.093Z,433.12
2022-09-04T09:33:19.143Z,433.12
2022-09-04T09:34:19.068Z,433.12
2022-09-04T09:35:19.063Z,438.75
2022-09-04T09:36:19.090Z,427.50
2022-09-04T09:37:19.038Z,427.50
2022-09-04T09:38:19.020Z,427.50
2022-09-04T09:39:19.123Z,421.88
2022-09-04T09:40:18.996Z,427.50
2022-09-04T09:41:19.895Z,427.50
2022-09-04T09:42:19.166Z,421.88
2022-09-04T09:43:19.074Z,421.88
2022-09-04T09:44:19.340Z,416.25
2022-09-04T09:45:19.054Z,416.25
2022-09-04T09:46:19.275Z,405.00
2022-09-04T09:47:19.159Z,399.38
2022-09-04T09:48:19.165Z,388.12
2022-09-04T09:49:19.122Z,382.50
2022-09-04T09:50:19.221Z,371.25
2022-09-04T09:51:19.001Z,371.25
2022-09-04T09:52:18.924Z,365.62
2022-09-04T09:53:19.130Z,360.00
2022-09-04T09:54:18.886Z,360.00
2022-09-04T09:55:18.830Z,354.38
2022-09-04T09:56:18.958Z,354.38
2022-09-04T09:57:18.945Z,354.38
2022-09-04T09:58:19.025Z,360.00
2022-09-04T09:59:18.855Z,360.00
2022-09-04T10:00:19.200Z,354.38
2022-09-04T10:01:18.887Z,354.38
2022-09-04T10:02:18.809Z,354.38
2022-09-04T10:03:19.160Z,354.38
2022-09-04T10:04:18.899Z,354.38
2022-09-04T10:05:18.799Z,354.38
2022-09-04T10:06:18.898Z,354.38
2022-09-04T10:07:18.954Z,354.38
2022-09-04T10:08:21.774Z,360.00
2022-09-04T10:09:19.217Z,365.62
2022-09-04T10:10:18.846Z,365.62
2022-09-04T10:11:18.659Z,371.25
2022-09-04T10:12:19.400Z,376.88
2022-09-04T10:13:19.058Z,371.25
2022-09-04T10:14:23.183Z,376.88
2022-09-04T10:15:18.678Z,376.88
2022-09-04T10:16:18.973Z,382.50
2022-09-04T10:17:18.711Z,388.12
2022-09-04T10:18:18.636Z,393.75
2022-09-04T10:19:18.771Z,399.38
2022-09-04T10:20:18.689Z,405.00
2022-09-04T10:21:18.677Z,405.00
2022-09-04T10:22:18.570Z,410.62
2022-09-04T10:23:18.536Z,410.62
2022-09-04T10:24:19.078Z,410.62
2022-09-04T10:25:18.632Z,405.00
2022-09-04T10:26:18.711Z,399.38
2022-09-04T10:27:18.553Z,399.38
2022-09-04T10:28:18.680Z,399.38
2022-09-04T10:29:22.158Z,405.00
2022-09-04T10:30:18.474Z,410.62
2022-09-04T10:31:18.442Z,416.25
2022-09-04T10:32:18.428Z,416.25
2022-09-04T10:33:18.460Z,416.25
2022-09-04T10:34:18.478Z,416.25
2022-09-04T10:35:18.506Z,416.25
2022-09-04T10:36:18.453Z,421.88
2022-09-04T10:37:20.340Z,427.50
2022-09-04T10:38:18.369Z,427.50
2022-09-04T10:39:18.487Z,433.12
2022-09-04T10:40:18.324Z,433.12
2022-09-04T10:41:18.321Z,433.12
2022-09-04T10:42:18.421Z,433.12
2022-09-04T10:43:18.458Z,427.50
2022-09-04T10:44:18.309Z,427.50
2022-09-04T10:45:18.377Z,433.12
2022-09-04T10:46:23.109Z,444.38
2022-09-04T10:47:18.257Z,450.00
2022-09-04T10:48:18.434Z,461.25
2022-09-04T10:49:18.462Z,461.25
2022-09-04T10:50:18.536Z,461.25
2022-09-04T10:51:18.421Z,461.25
2022-09-04T10:52:18.212Z,461.25
2022-09-04T10:53:18.309Z,461.25
2022-09-04T10:54:18.283Z,461.25
2022-09-04T10:55:19.789Z,461.25
2022-09-04T10:56:18.235Z,466.88
2022-09-04T10:57:18.225Z,472.50
2022-09-04T10:58:18.295Z,478.12
2022-09-04T10:59:18.250Z,478.12
2022-09-04T11:00:18.314Z,483.75
2022-09-04T11:01:18.206Z,483.75
2022-09-04T11:02:18.205Z,483.75
2022-09-04T11:03:18.096Z,483.75
2022-09-04T11:04:18.109Z,489.38
2022-09-04T11:05:18.060Z,489.38
2022-09-04T11:06:18.339Z,495.00
2022-09-04T11:07:18.207Z,495.00
2022-09-04T11:08:18.100Z,495.00
2022-09-04T11:09:18.060Z,495.00
2022-09-04T11:10:18.110Z,495.00
2022-09-04T11:11:18.116Z,500.62
2022-09-04T11:12:18.127Z,500.62
2022-09-04T11:13:18.141Z,500.62
2022-09-04T11:14:18.003Z,511.88
2022-09-04T11:15:18.080Z,511.88
2022-09-04T11:16:19.180Z,511.88
2022-09-04T11:17:18.035Z,511.88
2022-09-04T11:18:18.202Z,523.12
2022-09-04T11:19:17.955Z,528.75
2022-09-04T11:20:18.582Z,528.75
2022-09-04T11:21:18.001Z,534.38
2022-09-04T11:22:17.859Z,534.38
2022-09-04T11:23:17.854Z,534.38
2022-09-04T11:24:17.882Z,540.00
2022-09-04T11:25:17.960Z,540.00
2022-09-04T11:26:18.064Z,551.25
2022-09-04T11:27:18.002Z,556.88
2022-09-04T11:28:18.783Z,562.50
2022-09-04T11:29:17.856Z,568.12
2022-09-04T11:30:17.868Z,562.50
2022-09-04T11:31:17.853Z,562.50
2022-09-04T11:32:18.021Z,556.88
2022-09-04T11:33:17.882Z,545.62
2022-09-04T11:34:17.828Z,540.00
2022-09-04T11:35:17.909Z,528.75
2022-09-04T11:36:17.998Z,534.38
2022-09-04T11:37:17.889Z,534.38
2022-09-04T11:38:17.776Z,540.00
2022-09-04T11:39:17.834Z,545.62
2022-09-04T11:40:17.799Z,551.25
2022-09-04T11:41:18.332Z,562.50
2022-09-04T11:44:41.693Z,573.75
2022-09-04T11:45:42.719Z,573.75
2022-09-04T11:46:42.658Z,579.38
2022-09-04T11:47:42.682Z,579.38
2022-09-04T11:48:42.673Z,579.38
2022-09-04T11:49:42.684Z,585.00
2022-09-04T11:50:42.626Z,590.62
2022-09-04T11:51:42.605Z,596.25
2022-09-04T11:52:42.577Z,590.62
2022-09-04T11:53:43.398Z,590.62
2022-09-04T11:54:42.597Z,590.62
2022-09-04T11:55:42.593Z,596.25
2022-09-04T11:56:42.531Z,607.50
2022-09-04T11:57:42.527Z,613.12
2022-09-04T11:58:42.511Z,624.38
2022-09-04T11:59:42.762Z,624.38
2022-09-04T12:00:42.633Z,630.00
2022-09-04T12:01:47.547Z,630.00
2022-09-04T12:02:42.523Z,635.62
2022-09-04T12:03:42.497Z,635.62
2022-09-04T12:04:42.435Z,646.88
2022-09-04T12:05:42.457Z,652.50
2022-09-04T12:06:42.433Z,663.75
2022-09-04T12:07:43.536Z,675.00
2022-09-04T12:08:42.425Z,680.62
2022-09-04T12:09:42.417Z,691.88
2022-09-04T12:10:42.424Z,697.50
2022-09-04T12:11:42.493Z,703.12
2022-09-04T12:12:42.415Z,703.12
2022-09-04T12:13:42.428Z,703.12
2022-09-04T12:14:42.321Z,720.00
2022-09-04T12:15:42.314Z,725.62
2022-09-04T12:16:42.445Z,736.88
2022-09-04T12:17:42.349Z,736.88
2022-09-04T12:18:42.305Z,742.50
2022-09-04T12:19:42.289Z,748.12
2022-09-04T12:20:42.266Z,753.75
2022-09-04T12:21:43.316Z,759.38
2022-09-04T12:22:42.276Z,765.00
2022-09-04T12:23:42.304Z,770.62
2022-09-04T12:24:42.287Z,770.62
2022-09-04T12:25:42.243Z,776.25
2022-09-04T12:26:51.697Z,787.50
2022-09-04T12:27:42.173Z,793.12
2022-09-04T12:29:32.748Z,810.00
2022-09-04T12:30:33.635Z,826.88
2022-09-04T12:31:33.853Z,843.75
2022-09-04T12:32:33.676Z,866.25
2022-09-04T12:33:33.620Z,900.00
2022-09-04T12:34:33.634Z,961.88
2022-09-04T12:35:33.573Z,1231.88
2022-09-04T12:36:33.604Z,1704.38
2022-09-04T12:37:33.600Z,1704.38
2022-09-04T12:38:33.595Z,1749.38
2022-09-04T12:39:33.573Z,1794.38
2022-09-04T12:40:34.138Z,1873.12
2022-09-04T12:41:33.513Z,1822.50
2022-09-04T12:42:33.540Z,1749.38
2022-09-04T12:43:33.511Z,1710.00
2022-09-04T12:44:33.472Z,1794.38
2022-09-04T12:45:33.570Z,1715.62
2022-09-04T12:46:33.617Z,1721.25
2022-09-04T12:47:33.626Z,1732.50
2022-09-04T12:48:33.709Z,1687.50
2022-09-04T12:49:33.432Z,1721.25
2022-09-04T12:50:33.475Z,1738.12
2022-09-04T12:51:33.477Z,1811.25
2022-09-04T12:52:33.513Z,1760.62
2022-09-04T12:53:33.403Z,1816.88